createdAt,value
2022-10-31T00:01:34.474Z,74.00
2022-10-31T00:04:03.112Z,70.75
2022-10-31T00:06:31.285Z,65.93
2022-10-31T00:09:01.011Z,63.30
2022-10-31T00:11:29.506Z,71.18
2022-10-31T00:13:58.817Z,80.55
2022-10-31T00:16:27.087Z,71.80
2022-10-31T00:18:58.507Z,84.47
2022-10-31T00:21:26.464Z,76.05
2022-10-31T00:23:54.462Z,89.85
2022-10-31T00:26:22.653Z,72.62
2022-10-31T00:28:50.376Z,69.78
2022-10-31T00:31:18.360Z,61.75
2022-10-31T00:33:46.189Z,56.37
2022-10-31T00:36:19.226Z,46.83
2022-10-31T00:38:48.603Z,46.58
2022-10-31T00:41:17.992Z,41.40
2022-10-31T00:43:45.754Z,40.12
2022-10-31T00:46:14.302Z,43.47
2022-10-31T00:48:42.996Z,41.92
2022-10-31T00:51:10.503Z,58.72
2022-10-31T00:53:38.504Z,40.35
2022-10-31T00:56:06.999Z,40.38
2022-10-31T00:58:35.015Z,40.38
2022-10-31T01:01:03.823Z,41.10
2022-10-31T01:03:33.308Z,45.95
2022-10-31T01:06:05.277Z,38.75
2022-10-31T01:08:34.858Z,46.35
2022-10-31T01:11:14.901Z,46.78
2022-10-31T01:13:44.185Z,43.60
2022-10-31T01:16:14.804Z,33.80
2022-10-31T01:18:42.924Z,42.03
2022-10-31T01:21:13.690Z,39.47
2022-10-31T01:23:41.634Z,36.42
2022-10-31T01:26:12.727Z,37.90
2022-10-31T01:28:52.067Z,36.22
2022-10-31T01:31:23.183Z,40.55
2022-10-31T01:33:50.856Z,41.25
2022-10-31T01:36:29.562Z,36.63
2022-10-31T01:38:59.590Z,44.90
2022-10-31T01:41:31.972Z,43.17
2022-10-31T01:44:17.097Z,43.95
2022-10-31T01:46:53.763Z,47.92
2022-10-31T01:49:27.035Z,49.35
2022-10-31T01:52:02.385Z,45.45
2022-10-31T01:54:35.030Z,53.87
2022-10-31T01:57:03.171Z,48.67
2022-10-31T01:59:34.081Z,48.22
2022-10-31T02:02:02.667Z,47.72
2022-10-31T02:04:30.896Z,45.42
2022-10-31T02:07:04.122Z,48.25
2022-10-31T02:09:35.747Z,51.97
2022-10-31T02:12:03.714Z,49.75
2022-10-31T02:14:32.980Z,48.58
2022-10-31T02:17:00.979Z,46.80
2022-10-31T02:19:47.974Z,51.20
2022-10-31T02:22:30.777Z,41.50
2022-10-31T02:25:05.029Z,49.67
2022-10-31T02:27:53.193Z,43.95
2022-10-31T02:30:25.976Z,43.85
2022-10-31T02:33:00.122Z,52.33
2022-10-31T02:35:38.903Z,43.95
2022-10-31T02:38:20.198Z,46.42
2022-10-31T02:40:51.107Z,41.72
2022-10-31T02:43:42.065Z,43.70
2022-10-31T02:46:26.369Z,42.42
2022-10-31T02:48:56.150Z,42.88
2022-10-31T02:51:23.709Z,51.72
2022-10-31T02:53:51.680Z,38.10
2022-10-31T02:56:20.559Z,44.55
2022-10-31T02:58:54.966Z,38.33
2022-10-31T03:01:55.297Z,49.80
2022-10-31T03:04:38.560Z,41.63
2022-10-31T03:07:23.912Z,49.63
2022-10-31T03:10:42.909Z,41.13
2022-10-31T03:13:31.134Z,32.58
2022-10-31T03:16:15.849Z,34.70
2022-10-31T03:18:51.968Z,31.40
2022-10-31T03:21:24.303Z,35.22
2022-10-31T03:23:54.320Z,29.08
2022-10-31T03:26:22.879Z,28.08
2022-10-31T03:28:59.177Z,31.75
2022-10-31T03:31:31.201Z,32.03
2022-10-31T03:33:59.900Z,34.35
2022-10-31T03:36:35.920Z,29.58
2022-10-31T03:39:06.194Z,29.05
2022-10-31T03:41:39.557Z,27.80
2022-10-31T03:44:18.308Z,26.70
2022-10-31T03:46:48.097Z,27.65
2022-10-31T03:49:16.058Z,24.98
2022-10-31T03:51:50.098Z,26.35
2022-10-31T03:54:30.220Z,30.52
2022-10-31T03:57:02.320Z,23.85
2022-10-31T03:59:38.896Z,23.33
2022-10-31T04:02:11.236Z,20.83
2022-10-31T04:04:39.618Z,23.73
2022-10-31T04:07:08.357Z,22.92
2022-10-31T04:09:38.231Z,23.75
2022-10-31T04:12:26.148Z,20.85
2022-10-31T04:14:56.783Z,22.58
2022-10-31T04:17:29.094Z,24.83
2022-10-31T04:19:56.932Z,24.52
2022-10-31T04:22:24.659Z,21.45
2022-10-31T04:24:53.594Z,22.83
2022-10-31T04:27:21.785Z,23.23
2022-10-31T04:29:50.939Z,21.85
2022-10-31T04:32:19.104Z,22.77
2022-10-31T04:34:47.429Z,22.83
2022-10-31T04:37:15.462Z,19.83
2022-10-31T04:39:43.355Z,18.37
2022-10-31T04:42:13.392Z,18.42
2022-10-31T04:44:41.018Z,16.45
2022-10-31T04:47:09.324Z,21.17
2022-10-31T04:49:37.665Z,17.10
2022-10-31T04:52:06.476Z,17.25
2022-10-31T04:54:34.549Z,20.95
2022-10-31T04:57:04.333Z,22.60
2022-10-31T04:59:32.319Z,22.15
2022-10-31T05:02:00.990Z,21.55
2022-10-31T05:04:29.534Z,22.80
2022-10-31T05:06:57.551Z,19.55
2022-10-31T05:09:25.977Z,20.73
2022-10-31T05:11:54.106Z,21.60
2022-10-31T05:14:23.134Z,21.80
2022-10-31T05:16:53.501Z,20.45
2022-10-31T05:19:23.876Z,25.12
2022-10-31T05:21:54.947Z,25.15
2022-10-31T05:24:25.085Z,22.17
2022-10-31T05:26:53.663Z,23.10
2022-10-31T05:29:21.386Z,23.40
2022-10-31T05:31:49.262Z,24.58
2022-10-31T05:34:19.845Z,24.95
2022-10-31T05:36:49.058Z,26.73
2022-10-31T05:39:16.703Z,27.87
2022-10-31T05:41:44.962Z,28.23
2022-10-31T05:44:14.141Z,26.90
2022-10-31T05:46:47.551Z,28.35
2022-10-31T05:49:18.538Z,29.75
2022-10-31T05:51:48.150Z,27.73
2022-10-31T05:54:16.441Z,31.10
2022-10-31T05:56:44.995Z,28.25
2022-10-31T05:59:13.811Z,31.05
2022-10-31T06:01:42.067Z,34.10
2022-10-31T06:04:14.201Z,37.00
2022-10-31T06:06:43.517Z,34.78
2022-10-31T06:09:11.667Z,35.63
2022-10-31T06:11:39.995Z,38.05
2022-10-31T06:14:14.623Z,34.58
2022-10-31T06:16:43.587Z,35.38
2022-10-31T06:19:13.544Z,37.72
2022-10-31T06:21:41.832Z,39.28
2022-10-31T06:24:10.632Z,37.63
2022-10-31T06:26:40.003Z,41.60
2022-10-31T06:29:08.713Z,36.40
2022-10-31T06:31:37.904Z,32.20
2022-10-31T06:34:05.512Z,34.55
2022-10-31T06:36:33.751Z,39.30
2022-10-31T06:39:03.075Z,33.88
2022-10-31T06:41:31.652Z,33.80
2022-10-31T06:44:03.491Z,36.25
2022-10-31T06:46:35.695Z,35.03
2022-10-31T06:49:05.729Z,33.38
2022-10-31T06:51:33.717Z,31.23
2022-10-31T06:54:01.814Z,31.77
2022-10-31T06:56:29.205Z,31.58
2022-10-31T06:58:57.137Z,31.73
2022-10-31T07:01:26.930Z,34.63
2022-10-31T07:03:55.848Z,38.90
2022-10-31T07:06:23.917Z,41.80
2022-10-31T07:08:51.957Z,40.95
2022-10-31T07:11:19.890Z,42.62
2022-10-31T07:13:47.640Z,41.28
2022-10-31T07:16:17.161Z,37.97
2022-10-31T07:18:44.788Z,38.15
2022-10-31T07:21:13.126Z,40.60
2022-10-31T07:23:41.075Z,43.20
2022-10-31T07:26:12.822Z,38.42
2022-10-31T07:28:41.424Z,42.53
2022-10-31T07:31:09.631Z,42.88
2022-10-31T07:33:37.944Z,43.53
2022-10-31T07:36:08.466Z,41.78
2022-10-31T07:38:36.358Z,39.95
2022-10-31T07:41:04.117Z,45.83
2022-10-31T07:43:32.600Z,43.95
2022-10-31T07:46:01.519Z,39.20
2022-10-31T07:48:31.765Z,43.87
2022-10-31T07:51:08.005Z,39.65
2022-10-31T07:53:37.758Z,40.55
2022-10-31T07:56:06.653Z,41.70
2022-10-31T07:58:35.037Z,38.92
2022-10-31T08:01:03.206Z,43.95
2022-10-31T08:03:31.467Z,39.28
2022-10-31T08:06:02.103Z,36.38
2022-10-31T08:08:32.352Z,34.33
2022-10-31T08:11:04.646Z,40.45
2022-10-31T08:13:32.969Z,33.95
2022-10-31T08:16:05.083Z,41.42
2022-10-31T08:18:34.070Z,42.20
2022-10-31T08:21:02.347Z,41.92
2022-10-31T08:23:30.567Z,46.50
2022-10-31T08:25:58.778Z,42.80
2022-10-31T08:28:27.167Z,42.70
2022-10-31T08:30:55.392Z,39.28
2022-10-31T08:33:27.936Z,40.70
2022-10-31T08:35:59.530Z,37.85
2022-10-31T08:38:30.659Z,45.20
2022-10-31T08:40:58.606Z,47.22
2022-10-31T08:43:27.728Z,42.30
2022-10-31T08:45:56.061Z,40.17
2022-10-31T08:48:24.735Z,46.47
2022-10-31T08:50:52.979Z,48.08
2022-10-31T08:53:21.008Z,41.20
2022-10-31T08:55:49.715Z,44.97
2022-10-31T08:58:21.111Z,41.80
2022-10-31T09:00:52.859Z,34.97
2022-10-31T09:03:29.552Z,41.50
2022-10-31T09:06:00.421Z,38.17
2022-10-31T09:08:30.356Z,37.88
2022-10-31T09:10:58.840Z,36.25
2022-10-31T09:13:28.400Z,38.00
2022-10-31T09:15:59.793Z,38.97
2022-10-31T09:18:30.455Z,35.92
2022-10-31T09:21:01.245Z,35.55
2022-10-31T09:23:31.052Z,38.55
2022-10-31T09:26:01.292Z,37.13
2022-10-31T09:28:30.235Z,33.88
2022-10-31T09:31:00.431Z,38.08
2022-10-31T09:33:29.236Z,40.12
2022-10-31T09:36:00.291Z,39.42
2022-10-31T09:38:28.954Z,39.63
2022-10-31T09:41:04.665Z,42.60
2022-10-31T09:43:48.626Z,35.67
2022-10-31T09:46:19.893Z,39.45
2022-10-31T09:49:02.997Z,35.78
2022-10-31T09:51:35.036Z,41.90
2022-10-31T09:54:12.289Z,40.05
2022-10-31T09:56:40.278Z,41.47
2022-10-31T09:59:15.824Z,41.53
2022-10-31T10:01:54.616Z,44.72
2022-10-31T10:04:48.511Z,39.03
2022-10-31T10:07:32.378Z,41.78
2022-10-31T10:10:15.039Z,36.15
2022-10-31T10:12:54.650Z,38.33
2022-10-31T10:15:44.458Z,37.67
2022-10-31T10:18:14.438Z,37.65
2022-10-31T10:20:59.997Z,30.52
2022-10-31T10:23:55.738Z,35.47
2022-10-31T10:34:00.294Z,32.80
2022-10-31T10:36:31.848Z,33.63
2022-10-31T10:39:02.143Z,30.10
2022-10-31T10:41:34.574Z,29.52
2022-10-31T10:44:02.615Z,27.45
2022-10-31T10:47:03.459Z,29.15
2022-10-31T10:49:50.963Z,28.10
2022-10-31T10:52:50.874Z,31.70
2022-10-31T10:55:42.062Z,30.62
2022-10-31T10:58:10.899Z,28.40
2022-10-31T11:00:47.657Z,25.30
2022-10-31T11:03:17.520Z,33.75
2022-10-31T11:05:59.627Z,29.63
2022-10-31T11:08:29.019Z,32.72
2022-10-31T11:11:03.830Z,34.67
2022-10-31T11:13:33.261Z,34.38
2022-10-31T11:16:03.642Z,36.13
2022-10-31T11:18:33.163Z,28.83
2022-10-31T11:21:05.307Z,30.98
2022-10-31T11:23:34.005Z,30.42
2022-10-31T11:26:05.187Z,28.90
2022-10-31T11:28:35.761Z,30.35
2022-10-31T11:31:09.749Z,29.75
2022-10-31T11:34:04.556Z,26.92
2022-10-31T11:36:36.851Z,26.45
2022-10-31T11:39:07.567Z,27.25
2022-10-31T11:41:39.452Z,26.33
2022-10-31T11:44:18.359Z,23.42
2022-10-31T11:46:52.403Z,26.20
2022-10-31T11:49:41.355Z,24.07
2022-10-31T11:52:16.515Z,24.27
2022-10-31T11:54:47.768Z,27.00
2022-10-31T11:57:24.547Z,27.55
2022-10-31T11:59:58.417Z,26.75
2022-10-31T12:02:27.372Z,25.92
2022-10-31T12:05:03.933Z,28.52
2022-10-31T12:07:31.436Z,26.50
2022-10-31T12:09:59.424Z,24.25
2022-10-31T12:12:55.110Z,26.02
2022-10-31T12:15:38.465Z,25.10
2022-10-31T12:18:15.308Z,23.70
2022-10-31T12:21:00.876Z,26.58
2022-10-31T12:23:44.337Z,24.02
2022-10-31T12:26:47.881Z,25.10
2022-10-31T12:29:15.480Z,24.20
2022-10-31T12:32:21.202Z,26.85
2022-10-31T12:35:11.544Z,21.87
2022-10-31T12:37:49.999Z,23.83
2022-10-31T12:40:36.393Z,18.67
2022-10-31T12:43:36.069Z,24.02
2022-10-31T12:46:06.322Z,20.52
2022-10-31T12:48:58.485Z,24.45
2022-10-31T12:52:12.004Z,24.02
2022-10-31T12:55:34.679Z,21.37
2022-10-31T12:58:34.532Z,23.45
2022-10-31T13:01:20.597Z,20.27
2022-10-31T13:03:52.124Z,22.83
2022-10-31T13:06:24.555Z,20.25
2022-10-31T13:08:57.663Z,21.52
2022-10-31T13:11:30.012Z,24.05
2022-10-31T13:14:10.627Z,22.70
2022-10-31T13:16:41.382Z,21.00
2022-10-31T13:19:14.759Z,23.62
2022-10-31T13:22:01.101Z,20.20
2022-10-31T13:24:36.283Z,19.60
2022-10-31T13:27:16.245Z,21.92
2022-10-31T13:30:00.141Z,22.17
2022-10-31T13:32:31.692Z,24.98
2022-10-31T13:35:00.236Z,23.50
2022-10-31T13:37:31.505Z,27.08
2022-10-31T13:40:23.588Z,27.40
2022-10-31T13:43:08.175Z,24.30
2022-10-31T13:45:35.800Z,25.33
2022-10-31T13:48:16.132Z,23.12
2022-10-31T13:50:56.323Z,25.58
2022-10-31T13:53:46.568Z,27.00
2022-10-31T13:56:17.866Z,25.42
2022-10-31T13:59:10.127Z,22.75
2022-10-31T14:01:53.631Z,27.92
2022-10-31T14:04:26.030Z,21.92
2022-10-31T14:07:08.037Z,25.27
2022-10-31T14:09:57.733Z,25.75
2022-10-31T14:12:56.249Z,23.55
2022-10-31T14:15:28.012Z,23.83
2022-10-31T14:17:58.393Z,26.87
2022-10-31T14:20:42.189Z,22.62
2022-10-31T14:23:35.161Z,26.80
2022-10-31T14:26:29.715Z,27.77
2022-10-31T14:29:00.965Z,27.05
2022-10-31T14:31:40.825Z,34.20
2022-10-31T14:34:23.944Z,27.65
2022-10-31T14:36:58.144Z,27.55
2022-10-31T14:39:34.286Z,29.92
2022-10-31T14:42:23.969Z,31.60
2022-10-31T14:45:06.675Z,27.05
2022-10-31T14:47:40.231Z,30.70
2022-10-31T14:50:32.945Z,29.90
2022-10-31T14:53:03.602Z,29.08
2022-10-31T14:55:31.803Z,22.87
2022-10-31T14:58:05.532Z,27.15
2022-10-31T15:00:34.348Z,25.55
2022-10-31T15:03:17.236Z,28.17
2022-10-31T15:05:52.508Z,27.58
2022-10-31T15:08:47.876Z,34.78
2022-10-31T15:11:25.850Z,29.73
2022-10-31T15:13:55.755Z,29.25
2022-10-31T15:16:25.821Z,33.17
2022-10-31T15:18:55.835Z,29.40
2022-10-31T15:21:25.640Z,34.90
2022-10-31T15:23:55.228Z,34.58
2022-10-31T15:26:25.513Z,32.92
2022-10-31T15:29:06.092Z,31.42
2022-10-31T15:31:34.652Z,30.45
2022-10-31T15:36:53.372Z,28.42
2022-10-31T15:39:21.631Z,28.67
2022-10-31T15:41:55.296Z,29.92
2022-10-31T15:44:26.738Z,28.60
2022-10-31T15:47:00.720Z,29.55
2022-10-31T15:49:36.666Z,30.70
2022-10-31T15:52:48.771Z,28.10
2022-10-31T15:55:21.727Z,29.85
2022-10-31T15:57:57.789Z,30.75
2022-10-31T16:00:37.206Z,25.92
2022-10-31T16:03:20.875Z,30.08
2022-10-31T16:05:50.151Z,28.08
2022-10-31T16:08:33.207Z,26.95
2022-10-31T16:11:17.941Z,26.87
2022-10-31T16:13:59.349Z,31.30
2022-10-31T16:16:36.264Z,33.72
2022-10-31T16:19:05.982Z,33.53
2022-10-31T16:21:38.857Z,34.08
2022-10-31T16:24:17.309Z,29.55
2022-10-31T16:26:53.690Z,33.83
2022-10-31T16:29:39.509Z,32.92
2022-10-31T16:32:28.861Z,29.95
2022-10-31T16:35:26.327Z,35.17
2022-10-31T16:37:54.641Z,28.00
2022-10-31T16:40:23.325Z,34.42
2022-10-31T16:42:51.562Z,35.05
2022-10-31T16:45:24.949Z,29.95
2022-10-31T16:47:53.082Z,31.65
2022-10-31T16:50:26.155Z,32.28
2022-10-31T16:53:12.776Z,32.38
2022-10-31T16:55:47.286Z,32.08
2022-10-31T16:58:18.971Z,33.63
2022-10-31T17:00:47.006Z,31.12
2022-10-31T17:03:15.479Z,34.80
2022-10-31T17:05:42.961Z,30.08
2022-10-31T17:08:10.297Z,32.10
2022-10-31T17:10:39.277Z,32.42
2022-10-31T17:13:11.885Z,30.45
2022-10-31T17:15:44.746Z,35.55
2022-10-31T17:18:16.754Z,34.63
2022-10-31T17:20:44.881Z,37.50
2022-10-31T17:23:15.371Z,33.60
2022-10-31T17:25:44.036Z,36.65
2022-10-31T17:28:14.810Z,31.95
2022-10-31T17:30:43.721Z,35.72
2022-10-31T17:33:13.625Z,34.63
2022-10-31T17:35:42.349Z,35.33
2022-10-31T17:38:09.805Z,32.88
2022-10-31T17:40:39.375Z,39.47
2022-10-31T17:43:10.145Z,35.22
2022-10-31T17:45:42.211Z,32.38
2022-10-31T17:48:12.661Z,34.90
2022-10-31T17:50:41.730Z,39.00
2022-10-31T17:53:10.148Z,35.03
2022-10-31T17:55:38.723Z,35.10
2022-10-31T17:58:07.318Z,34.00
2022-10-31T18:00:35.982Z,34.63
2022-10-31T18:03:05.393Z,34.60
2022-10-31T18:05:34.129Z,33.38
2022-10-31T18:08:04.071Z,37.42
2022-10-31T18:10:33.287Z,40.65
2022-10-31T18:13:01.655Z,35.22
2022-10-31T18:15:29.926Z,40.97
2022-10-31T18:17:58.830Z,38.63
2022-10-31T18:20:26.500Z,39.10
2022-10-31T18:22:57.765Z,38.70
2022-10-31T18:25:26.423Z,37.72
2022-10-31T18:27:54.581Z,37.35
2022-10-31T18:30:22.380Z,38.40
2022-10-31T18:32:52.313Z,41.33
2022-10-31T18:35:20.699Z,42.47
2022-10-31T18:37:48.360Z,49.28
2022-10-31T18:40:17.071Z,40.45
2022-10-31T18:42:44.656Z,46.50
2022-10-31T18:45:31.365Z,43.58
2022-10-31T18:48:01.664Z,47.90
2022-10-31T18:50:29.859Z,43.75
2022-10-31T18:52:58.714Z,41.17
2022-10-31T18:55:27.954Z,40.15
2022-10-31T18:57:56.696Z,40.38
2022-10-31T19:00:24.582Z,46.37
2022-10-31T19:02:56.673Z,46.92
2022-10-31T19:05:24.725Z,42.05
2022-10-31T19:07:54.631Z,41.72
2022-10-31T19:10:23.056Z,39.13
2022-10-31T19:12:51.641Z,36.95
2022-10-31T19:15:20.143Z,33.67
2022-10-31T19:17:54.997Z,35.83
2022-10-31T19:20:22.838Z,38.70
2022-10-31T19:22:52.467Z,37.72
2022-10-31T19:25:21.624Z,35.38
2022-10-31T19:27:50.268Z,38.25
2022-10-31T19:30:19.598Z,38.40
2022-10-31T19:32:48.626Z,43.53
2022-10-31T19:35:17.829Z,37.08
2022-10-31T19:37:48.346Z,39.13
2022-10-31T19:40:16.024Z,39.30
2022-10-31T19:42:44.237Z,43.87
2022-10-31T19:45:13.207Z,36.90
2022-10-31T19:47:41.483Z,38.50
2022-10-31T19:50:10.517Z,36.13
2022-10-31T19:52:39.654Z,32.45
2022-10-31T19:55:08.053Z,30.75
2022-10-31T20:00:25.855Z,26.92
2022-10-31T20:02:53.574Z,26.92
2022-10-31T20:05:22.989Z,28.48
2022-10-31T20:07:54.666Z,25.83
2022-10-31T20:10:23.514Z,24.83
2022-10-31T20:12:51.791Z,24.87
2022-10-31T20:15:20.244Z,28.02
2022-10-31T20:17:49.138Z,26.37
2022-10-31T20:20:17.394Z,30.02
2022-10-31T20:22:48.075Z,25.65
2022-10-31T20:25:17.244Z,30.45
2022-10-31T20:27:45.898Z,30.23
2022-10-31T20:30:14.738Z,27.15
2022-10-31T20:32:46.342Z,29.33
2022-10-31T20:35:17.876Z,29.48
2022-10-31T20:37:45.881Z,29.23
2022-10-31T20:40:15.058Z,34.58
2022-10-31T20:42:46.627Z,33.42
2022-10-31T20:45:14.899Z,31.40
2022-10-31T20:47:43.209Z,34.08
2022-10-31T20:50:10.634Z,30.60
2022-10-31T20:52:40.560Z,29.17
2022-10-31T20:55:09.767Z,30.67
2022-10-31T20:57:38.273Z,33.22
2022-10-31T21:00:07.879Z,40.55
2022-10-31T21:02:35.563Z,35.67
2022-10-31T21:05:08.576Z,37.45
2022-10-31T21:07:35.977Z,39.47
2022-10-31T21:10:05.140Z,41.42
2022-10-31T21:12:33.551Z,40.75
2022-10-31T21:15:01.144Z,45.10
2022-10-31T21:17:29.159Z,43.70
2022-10-31T21:19:57.431Z,41.30
2022-10-31T21:22:25.193Z,42.72
2022-10-31T21:24:52.880Z,42.13
2022-10-31T21:27:20.547Z,41.92
2022-10-31T21:29:48.334Z,42.85
2022-10-31T21:32:17.024Z,42.53
2022-10-31T21:34:45.018Z,38.90
2022-10-31T21:37:13.178Z,44.85
2022-10-31T21:39:40.781Z,38.95
2022-10-31T21:42:08.498Z,41.25
2022-10-31T21:44:35.915Z,43.17
2022-10-31T21:47:03.585Z,41.83
2022-10-31T21:49:31.004Z,44.38
2022-10-31T21:51:58.749Z,44.53
2022-10-31T21:54:30.513Z,46.20
2022-10-31T21:56:59.194Z,46.28
2022-10-31T21:59:28.070Z,41.28
2022-10-31T22:01:58.524Z,43.00
2022-10-31T22:04:27.883Z,46.92
2022-10-31T22:06:56.339Z,45.38
2022-10-31T22:09:23.888Z,45.40
2022-10-31T22:11:52.194Z,46.72
2022-10-31T22:14:20.606Z,49.80
2022-10-31T22:16:49.192Z,42.95
2022-10-31T22:19:16.812Z,38.10
2022-10-31T22:21:47.479Z,39.08
2022-10-31T22:24:16.257Z,41.13
2022-10-31T22:26:45.161Z,44.60
2022-10-31T22:29:16.155Z,40.33
2022-10-31T22:31:47.654Z,44.15
2022-10-31T22:34:17.619Z,38.00
2022-10-31T22:36:46.482Z,36.53
2022-10-31T22:39:15.196Z,34.55
2022-10-31T22:41:43.251Z,36.75
2022-10-31T22:44:11.481Z,35.25
2022-10-31T22:46:40.178Z,37.63
2022-10-31T22:49:11.111Z,38.65
2022-10-31T22:51:40.357Z,36.67
2022-10-31T22:54:12.551Z,38.42
2022-10-31T22:56:40.614Z,34.05
2022-10-31T22:59:10.927Z,35.20
2022-10-31T23:01:38.888Z,33.67
2022-10-31T23:04:06.803Z,33.47
2022-10-31T23:06:34.741Z,35.95
2022-10-31T23:09:04.618Z,34.40
2022-10-31T23:11:38.432Z,34.88
2022-10-31T23:14:14.907Z,33.72
2022-10-31T23:16:55.063Z,37.45
2022-10-31T23:19:31.667Z,36.72
2022-10-31T23:22:02.138Z,31.65
2022-10-31T23:24:37.748Z,29.08
2022-10-31T23:27:20.748Z,31.35
2022-10-31T23:29:49.431Z,27.90
2022-10-31T23:32:18.563Z,31.12
2022-10-31T23:34:47.424Z,28.12
2022-10-31T23:37:15.534Z,28.38
2022-10-31T23:39:43.803Z,26.42
2022-10-31T23:42:12.073Z,27.83
2022-10-31T23:44:39.970Z,24.45
2022-10-31T23:47:08.017Z,30.30
2022-10-31T23:49:35.783Z,27.90
2022-10-31T23:52:04.489Z,25.08
2022-10-31T23:54:33.296Z,25.98
2022-10-31T23:57:01.862Z,30.60
2022-10-31T23:59:29.686Z,29.08
